Time;durP1;ratioP1;P1;durP2;ratioP2;P2;SDS_P1;SDS_P2;PMS_P1;PMS_P2;Temp;Humidity;BMP_temperature;BMP_pressure;BME280_temperature;BME280_humidity;BME280_pressure;Samples;Min_cycle;Max_cycle;Signal;HPM_P1;HPM_P2
2021/05/25 00:02:10;;;;;;;1.90;0.85;;;21.20;64.60;;;;;;4993713;28;20027;-81
2021/05/25 00:04:36;;;;;;;0.85;0.47;;;21.20;64.70;;;;;;4993774;28;20033;-77
2021/05/25 00:07:02;;;;;;;1.02;0.50;;;21.20;64.80;;;;;;4993688;28;20453;-84
2021/05/25 00:09:27;;;;;;;2.60;0.38;;;21.30;64.60;;;;;;4993682;28;20030;-76
2021/05/25 00:11:53;;;;;;;3.13;0.40;;;21.40;64.70;;;;;;4993685;28;20054;-79
2021/05/25 00:14:21;;;;;;;0.73;0.40;;;21.30;64.70;;;;;;4993644;28;20273;-75
2021/05/25 00:16:51;;;;;;;2.22;1.00;;;21.30;65.00;;;;;;4993551;28;20042;-78
2021/05/25 00:19:19;;;;;;;3.60;0.50;;;21.40;65.10;;;;;;4992399;28;20471;-76
2021/05/25 00:21:46;;;;;;;2.63;0.70;;;21.40;65.30;;;;;;4992389;28;20041;-84
2021/05/25 00:24:11;;;;;;;2.35;0.80;;;21.40;65.30;;;;;;4993394;28;20026;-80
2021/05/25 00:26:38;;;;;;;1.37;0.60;;;21.50;65.50;;;;;;4993318;28;20110;-77
2021/05/25 00:29:04;;;;;;;1.20;0.47;;;21.50;65.60;;;;;;4993363;28;20484;-76
2021/05/25 00:31:30;;;;;;;0.65;0.45;;;21.60;65.80;;;;;;4993407;28;20035;-76
2021/05/25 00:33:56;;;;;;;1.50;0.50;;;21.60;65.90;;;;;;4993309;28;20106;-79
2021/05/25 00:36:24;;;;;;;1.27;0.47;;;21.60;66.00;;;;;;4993194;28;20265;-84
2021/05/25 00:38:50;;;;;;;1.80;0.50;;;21.50;66.40;;;;;;4993231;28;20491;-82
2021/05/25 00:41:16;;;;;;;3.50;0.68;;;21.50;66.70;;;;;;4993206;28;20034;-79
2021/05/25 00:43:42;;;;;;;2.13;0.60;;;21.50;67.30;;;;;;4993271;28;20038;-84
2021/05/25 00:46:08;;;;;;;1.67;0.70;;;21.50;68.00;;;;;;4993070;28;20047;-75
2021/05/25 00:48:34;;;;;;;1.13;0.57;;;21.50;68.60;;;;;;4993376;28;20035;-76
2021/05/25 00:51:00;;;;;;;1.70;0.77;;;21.50;69.00;;;;;;4993001;28;21272;-82
2021/05/25 00:53:27;;;;;;;1.67;0.85;;;21.50;69.50;;;;;;4996853;28;20749;-75
2021/05/25 00:55:53;;;;;;;3.13;0.85;;;21.50;69.90;;;;;;5009739;28;20014;-78
2021/05/25 00:58:19;;;;;;;2.22;1.42;;;21.50;70.20;;;;;;4996586;28;20379;-77
2021/05/25 01:00:47;;;;;;;5.50;0.80;;;21.50;70.60;;;;;;4993000;28;20113;-76
2021/05/25 01:03:16;;;;;;;4.32;0.57;;;21.40;70.90;;;;;;4992974;28;20110;-76
2021/05/25 01:05:42;;;;;;;3.10;0.70;;;21.40;71.20;;;;;;4993089;28;20179;-86
2021/05/25 01:08:09;;;;;;;10.73;0.85;;;21.40;71.70;;;;;;4992776;28;20134;-84
2021/05/25 01:10:38;;;;;;;2.25;0.80;;;21.30;72.30;;;;;;4992697;28;20023;-77
2021/05/25 01:13:10;;;;;;;3.08;0.85;;;21.20;72.70;;;;;;4991710;28;20041;-79
2021/05/25 01:15:37;;;;;;;2.65;0.68;;;21.20;73.00;;;;;;4992563;28;20055;-76
2021/05/25 01:18:04;;;;;;;1.30;0.75;;;21.20;73.30;;;;;;4992658;28;20030;-85
2021/05/25 01:20:33;;;;;;;2.38;0.95;;;21.20;73.80;;;;;;4992751;28;20030;-76
2021/05/25 01:22:59;;;;;;;4.10;1.70;;;21.20;74.10;;;;;;4992654;28;20119;-76
2021/05/25 01:25:26;;;;;;;3.92;1.40;;;21.10;74.30;;;;;;4991755;28;20092;-82
2021/05/25 01:27:55;;;;;;;3.42;1.05;;;21.10;74.80;;;;;;4992493;28;20038;-85
2021/05/25 01:30:25;;;;;;;4.45;1.15;;;21.10;75.20;;;;;;4992515;28;20024;-83
2021/05/25 01:32:51;;;;;;;3.13;0.90;;;21.00;75.50;;;;;;4992536;28;20075;-76
2021/05/25 01:35:18;;;;;;;3.42;1.17;;;21.10;75.60;;;;;;4992388;28;20027;-85
2021/05/25 01:37:44;;;;;;;4.53;1.00;;;21.10;75.70;;;;;;4992442;28;20027;-85
2021/05/25 01:40:11;;;;;;;1.83;1.13;;;21.10;76.00;;;;;;4992420;28;20379;-81
2021/05/25 01:42:38;;;;;;;6.40;1.02;;;21.10;76.10;;;;;;4992635;28;20027;-80
2021/05/25 01:45:07;;;;;;;2.53;0.80;;;21.10;76.40;;;;;;4992146;28;20030;-85
2021/05/25 01:47:33;;;;;;;2.30;1.17;;;21.10;76.80;;;;;;4992193;28;20085;-78
2021/05/25 01:50:13;;;;;;;4.95;1.00;;;21.10;77.20;;;;;;4992083;28;20076;-79
2021/05/25 01:52:52;;;;;;;3.15;0.85;;;21.00;77.40;;;;;;4992380;28;20109;-78
2021/05/25 01:55:42;;;;;;;1.08;0.70;;;21.10;77.50;;;;;;4992151;28;20030;-85
2021/05/25 01:58:16;;;;;;;2.28;0.70;;;21.00;77.70;;;;;;4991978;28;20023;-76
2021/05/25 02:00:49;;;;;;;3.47;1.00;;;21.00;78.10;;;;;;4992237;28;20031;-76
2021/05/25 02:03:15;;;;;;;6.88;1.00;;;20.90;78.20;;;;;;4992202;28;20031;-77
2021/05/25 02:05:41;;;;;;;2.38;0.93;;;21.00;78.40;;;;;;4996957;28;20030;-76
2021/05/25 02:08:08;;;;;;;5.78;1.65;;;21.00;78.70;;;;;;5004495;28;20053;-76
2021/05/25 02:10:39;;;;;;;1.35;0.98;;;21.00;78.70;;;;;;4991825;28;20042;-76
2021/05/25 02:13:07;;;;;;;6.32;1.00;;;20.90;79.00;;;;;;4991457;28;20027;-76
2021/05/25 02:15:34;;;;;;;3.58;0.90;;;20.90;79.20;;;;;;4990500;28;20445;-76
2021/05/25 02:18:24;;;;;;;1.98;1.13;;;20.90;79.30;;;;;;4991788;28;20033;-83
2021/05/25 02:20:55;;;;;;;4.72;0.90;;;20.90;79.50;;;;;;4992233;28;20029;-77
2021/05/25 02:23:21;;;;;;;6.35;0.98;;;20.90;79.60;;;;;;4991421;28;20026;-85
2021/05/25 02:25:48;;;;;;;3.20;0.80;;;20.90;79.70;;;;;;4991592;28;20038;-79
2021/05/25 02:28:14;;;;;;;4.55;1.40;;;20.90;79.90;;;;;;4991501;28;20072;-84
2021/05/25 02:30:41;;;;;;;5.78;1.10;;;20.90;80.10;;;;;;4990492;28;20031;-85
2021/05/25 02:33:12;;;;;;;6.35;1.50;;;20.90;80.20;;;;;;4990250;28;20566;-76
2021/05/25 02:35:39;;;;;;;2.72;1.17;;;20.90;80.40;;;;;;4991447;28;20033;-85
2021/05/25 02:38:07;;;;;;;6.45;1.38;;;20.80;80.50;;;;;;4991592;28;20034;-76
2021/05/25 02:40:34;;;;;;;2.95;0.95;;;20.80;80.70;;;;;;4991373;28;20030;-82
2021/05/25 02:43:00;;;;;;;5.90;1.40;;;20.80;80.70;;;;;;4991579;28;20030;-76
2021/05/25 02:45:27;;;;;;;5.68;1.40;;;20.80;80.80;;;;;;4991229;28;20034;-76
2021/05/25 02:47:53;;;;;;;2.75;0.90;;;20.80;81.00;;;;;;4991271;28;20483;-82
2021/05/25 02:50:20;;;;;;;2.50;1.30;;;20.80;81.20;;;;;;4991129;28;20065;-76
2021/05/25 02:52:48;;;;;;;1.85;0.80;;;20.80;81.20;;;;;;4990058;28;20072;-85
2021/05/25 02:55:17;;;;;;;6.80;1.35;;;20.80;81.20;;;;;;4991181;28;20026;-77
2021/05/25 02:57:43;;;;;;;3.30;1.33;;;20.80;81.60;;;;;;4991210;28;20026;-76
2021/05/25 03:00:14;;;;;;;4.30;1.25;;;20.80;81.80;;;;;;4991234;28;20029;-86
2021/05/25 03:02:40;;;;;;;4.13;1.42;;;20.90;81.20;;;;;;4990140;28;20109;-86
2021/05/25 03:05:08;;;;;;;4.80;1.20;;;21.00;81.00;;;;;;4991055;28;20102;-85
2021/05/25 03:07:34;;;;;;;4.63;0.95;;;20.90;81.00;;;;;;4989723;28;20049;-77
2021/05/25 03:10:00;;;;;;;3.95;1.33;;;21.00;80.90;;;;;;4991089;28;20022;-79
2021/05/25 03:12:26;;;;;;;5.65;1.63;;;21.00;80.90;;;;;;4989873;28;20121;-76
2021/05/25 03:14:52;;;;;;;2.77;1.50;;;21.00;81.00;;;;;;4991373;28;20550;-76
2021/05/25 03:17:22;;;;;;;4.90;1.08;;;21.00;80.90;;;;;;5005720;28;20034;-81
2021/05/25 03:19:48;;;;;;;5.57;1.20;;;21.00;80.80;;;;;;4996133;28;20031;-77
2021/05/25 03:22:14;;;;;;;2.80;1.05;;;21.00;80.90;;;;;;4990783;28;20034;-85
2021/05/25 03:24:40;;;;;;;8.03;1.10;;;21.10;80.80;;;;;;4990895;28;20026;-85
2021/05/25 03:27:06;;;;;;;2.27;0.63;;;21.10;80.70;;;;;;4990572;28;20285;-76
2021/05/25 03:29:32;;;;;;;2.55;1.02;;;21.00;80.90;;;;;;4990896;28;20104;-78
2021/05/25 03:31:58;;;;;;;8.50;2.05;;;21.00;80.90;;;;;;4990739;28;20089;-77
2021/05/25 03:34:24;;;;;;;2.92;1.13;;;20.90;81.10;;;;;;4990467;28;20034;-76
2021/05/25 03:36:50;;;;;;;4.55;0.93;;;21.00;81.20;;;;;;4990031;28;20038;-76
2021/05/25 03:39:15;;;;;;;7.20;1.73;;;20.90;81.30;;;;;;4990436;28;20079;-77
2021/05/25 03:41:41;;;;;;;11.60;1.75;;;20.90;81.50;;;;;;4990624;28;20034;-78
2021/05/25 03:44:13;;;;;;;4.13;1.20;;;20.80;81.50;;;;;;4990819;28;20031;-76
2021/05/25 03:46:40;;;;;;;5.72;1.60;;;20.80;81.70;;;;;;4990369;28;20372;-76
2021/05/25 03:49:06;;;;;;;2.95;1.08;;;20.90;81.90;;;;;;4990440;28;20034;-75
2021/05/25 03:51:32;;;;;;;2.72;1.23;;;20.80;82.10;;;;;;4990643;28;20030;-84
2021/05/25 03:53:59;;;;;;;3.30;1.50;;;20.70;82.30;;;;;;4989145;28;20038;-85
2021/05/25 03:56:31;;;;;;;5.30;1.45;;;20.60;83.00;;;;;;4990346;28;20368;-87
2021/05/25 03:58:57;;;;;;;3.05;1.55;;;20.50;83.50;;;;;;4990151;28;20077;-76
2021/05/25 04:01:26;;;;;;;4.10;1.53;;;20.40;83.90;;;;;;4990327;28;20058;-86
2021/05/25 04:03:56;;;;;;;4.72;1.13;;;20.40;84.20;;;;;;4990381;28;20261;-84
2021/05/25 04:06:23;;;;;;;5.22;1.65;;;20.40;84.50;;;;;;4990300;28;20069;-82
2021/05/25 04:08:50;;;;;;;6.72;1.95;;;20.40;84.60;;;;;;4990294;28;20038;-80
2021/05/25 04:11:17;;;;;;;5.22;1.58;;;20.50;84.60;;;;;;4990148;28;20065;-77
2021/05/25 04:13:44;;;;;;;2.67;1.20;;;20.50;84.60;;;;;;4989065;28;20151;-85
2021/05/25 04:16:13;;;;;;;7.00;1.45;;;20.60;84.50;;;;;;4990192;28;20031;-76
2021/05/25 04:18:42;;;;;;;6.85;1.92;;;20.60;84.50;;;;;;4990233;28;20038;-78
2021/05/25 04:21:09;;;;;;;4.13;1.25;;;20.50;84.90;;;;;;4990172;28;20084;-85
2021/05/25 04:23:35;;;;;;;5.50;1.58;;;20.50;85.00;;;;;;4990302;28;20088;-79
2021/05/25 04:26:02;;;;;;;3.75;1.15;;;20.50;85.20;;;;;;4991960;28;20011;-78
2021/05/25 04:28:27;;;;;;;3.40;1.30;;;20.50;85.50;;;;;;5005616;28;20039;-78
2021/05/25 04:30:54;;;;;;;5.15;1.30;;;20.50;85.60;;;;;;4993324;28;20051;-78
2021/05/25 04:33:20;;;;;;;4.43;1.63;;;20.50;85.80;;;;;;4990417;28;20038;-76
2021/05/25 04:35:47;;;;;;;3.53;1.10;;;20.60;85.90;;;;;;4989950;28;20033;-85
2021/05/25 04:38:13;;;;;;;3.85;1.25;;;20.70;85.90;;;;;;4990021;28;20035;-81
2021/05/25 04:40:42;;;;;;;7.28;1.48;;;20.60;86.00;;;;;;4989866;28;20103;-76
2021/05/25 04:43:09;;;;;;;4.30;1.63;;;20.60;86.30;;;;;;4989795;28;20038;-76
2021/05/25 04:45:38;;;;;;;5.53;1.70;;;20.70;86.20;;;;;;4990090;28;20034;-76
2021/05/25 04:48:08;;;;;;;4.40;1.75;;;20.70;86.30;;;;;;4992904;28;20406;-83
2021/05/25 04:50:35;;;;;;;6.70;2.00;;;20.70;86.40;;;;;;4993144;28;20360;-76
2021/05/25 04:53:01;;;;;;;4.68;1.23;;;20.70;86.60;;;;;;4993209;28;20146;-85
2021/05/25 04:55:27;;;;;;;5.25;1.55;;;20.80;86.70;;;;;;4993058;28;20384;-76
2021/05/25 04:57:54;;;;;;;8.18;1.40;;;20.80;86.80;;;;;;4992879;28;20042;-79
2021/05/25 05:00:23;;;;;;;5.57;2.05;;;20.90;86.80;;;;;;4993001;28;20030;-76
2021/05/25 05:02:49;;;;;;;8.23;2.00;;;21.00;86.70;;;;;;4992887;28;20031;-78
2021/05/25 05:05:16;;;;;;;4.55;1.92;;;21.00;86.40;;;;;;4992790;28;20050;-76
2021/05/25 05:07:42;;;;;;;11.25;2.22;;;21.10;86.10;;;;;;4992728;28;20073;-77
2021/05/25 05:10:09;;;;;;;6.27;2.93;;;21.20;85.90;;;;;;4992869;28;20428;-76
2021/05/25 05:12:35;;;;;;;8.38;2.95;;;21.30;85.60;;;;;;4992744;28;20273;-76
2021/05/25 05:15:02;;;;;;;7.85;2.47;;;21.30;85.70;;;;;;4992389;28;20049;-85
2021/05/25 05:17:28;;;;;;;11.95;3.22;;;21.30;85.40;;;;;;4992700;28;20066;-77
2021/05/25 05:19:55;;;;;;;10.48;4.05;;;21.50;85.40;;;;;;4992889;28;20030;-86
2021/05/25 05:22:21;;;;;;;17.23;5.80;;;21.50;85.40;;;;;;4991579;28;20034;-76
2021/05/25 05:24:48;;;;;;;21.02;6.82;;;21.60;85.10;;;;;;4992688;28;20030;-85
2021/05/25 05:27:15;;;;;;;16.15;6.10;;;21.60;84.30;;;;;;4993064;28;20034;-85
2021/05/25 05:29:41;;;;;;;9.93;3.78;;;21.70;84.20;;;;;;4992653;28;20022;-79
2021/05/25 05:32:07;;;;;;;6.80;2.97;;;21.70;83.70;;;;;;4992589;28;20068;-80
2021/05/25 05:34:34;;;;;;;5.40;2.65;;;21.80;82.90;;;;;;4992529;28;20488;-86
2021/05/25 05:37:00;;;;;;;6.47;2.67;;;21.90;83.00;;;;;;4997107;28;20027;-79
2021/05/25 05:39:26;;;;;;;6.43;2.03;;;22.00;82.50;;;;;;5008376;28;20092;-77
2021/05/25 05:41:52;;;;;;;9.07;2.40;;;22.10;81.60;;;;;;4979214;28;20460;-79
2021/05/25 05:44:18;;;;;;;8.38;2.15;;;22.20;81.10;;;;;;4975072;28;20023;-86
2021/05/25 05:46:44;;;;;;;8.37;1.93;;;22.20;80.40;;;;;;4992480;28;20483;-78
2021/05/25 05:49:10;;;;;;;5.68;1.60;;;22.30;80.10;;;;;;4992043;28;20277;-81
2021/05/25 05:51:36;;;;;;;6.00;2.30;;;22.40;78.20;;;;;;4992359;28;20026;-76
2021/05/25 05:54:03;;;;;;;6.25;1.80;;;22.50;78.20;;;;;;4992205;28;20057;-76
2021/05/25 05:56:29;;;;;;;7.43;2.08;;;22.60;77.90;;;;;;4992376;28;20509;-76
2021/05/25 05:58:55;;;;;;;7.53;2.57;;;22.60;77.10;;;;;;4991476;28;20061;-79
2021/05/25 06:01:21;;;;;;;5.00;2.10;;;22.70;76.80;;;;;;4992151;28;20273;-80
2021/05/25 06:03:47;;;;;;;7.35;3.40;;;22.80;75.80;;;;;;4990916;28;20034;-78
2021/05/25 06:06:14;;;;;;;9.23;2.88;;;22.90;75.20;;;;;;4991929;28;20368;-77
2021/05/25 06:08:43;;;;;;;7.47;2.80;;;22.90;74.80;;;;;;4992090;28;20034;-82
2021/05/25 06:11:09;;;;;;;3.60;1.70;;;22.90;75.20;;;;;;4991919;28;20058;-76
2021/05/25 06:13:36;;;;;;;7.38;3.20;;;23.00;75.60;;;;;;4991903;28;20030;-76
2021/05/25 06:16:02;;;;;;;8.68;3.03;;;23.10;75.40;;;;;;4991964;28;20079;-85
2021/05/25 06:18:33;;;;;;;5.60;2.25;;;23.20;75.80;;;;;;4992041;28;20509;-84
2021/05/25 06:21:01;;;;;;;6.28;2.65;;;23.20;76.40;;;;;;4991704;28;20058;-87
2021/05/25 06:23:28;;;;;;;7.40;1.85;;;23.20;75.70;;;;;;4991167;28;20615;-78
2021/05/25 06:25:55;;;;;;;12.48;3.97;;;23.30;76.00;;;;;;4991932;28;20506;-76
2021/05/25 06:28:21;;;;;;;7.05;2.50;;;23.30;76.30;;;;;;4991760;28;20482;-79
2021/05/25 06:30:47;;;;;;;9.77;2.50;;;23.40;76.00;;;;;;4991890;28;20072;-80
2021/05/25 06:33:13;;;;;;;12.68;3.53;;;23.40;76.20;;;;;;4991951;28;20269;-86
2021/05/25 06:35:39;;;;;;;11.77;3.33;;;23.50;76.40;;;;;;4991946;28;20034;-82
2021/05/25 06:38:06;;;;;;;10.20;3.83;;;23.60;73.90;;;;;;4991764;28;20320;-83
2021/05/25 06:40:32;;;;;;;13.05;4.05;;;23.70;74.30;;;;;;4991472;28;20772;-76
2021/05/25 06:42:58;;;;;;;8.68;2.72;;;23.70;72.40;;;;;;4991784;28;20030;-76
2021/05/25 06:45:27;;;;;;;9.20;2.80;;;23.80;72.10;;;;;;4991618;28;20069;-81
2021/05/25 06:47:53;;;;;;;6.07;2.80;;;23.80;71.70;;;;;;4992459;28;20030;-76
2021/05/25 06:50:19;;;;;;;6.45;2.97;;;23.90;72.10;;;;;;5003936;28;20026;-78
2021/05/25 06:52:45;;;;;;;5.70;2.22;;;24.00;72.60;;;;;;4994053;28;20059;-77
2021/05/25 06:55:13;;;;;;;12.82;2.63;;;24.10;72.50;;;;;;4991497;28;20038;-81
2021/05/25 06:57:40;;;;;;;5.28;2.17;;;24.10;71.50;;;;;;4991495;28;20420;-86
2021/05/25 07:00:08;;;;;;;7.60;2.10;;;24.20;71.30;;;;;;4991600;28;20410;-85
2021/05/25 07:02:37;;;;;;;7.65;2.10;;;24.20;71.50;;;;;;4991320;28;20026;-77
2021/05/25 07:05:05;;;;;;;4.63;1.92;;;24.30;71.20;;;;;;4991471;28;20038;-79
2021/05/25 07:07:31;;;;;;;4.72;2.10;;;24.30;71.00;;;;;;4991370;28;20499;-86
2021/05/25 07:09:57;;;;;;;7.10;1.90;;;24.30;71.70;;;;;;4990073;28;20026;-84
2021/05/25 07:12:23;;;;;;;4.82;2.42;;;24.40;71.30;;;;;;4991493;28;20048;-86
2021/05/25 07:14:49;;;;;;;5.03;1.83;;;24.50;70.80;;;;;;4991140;28;20096;-86
2021/05/25 07:17:15;;;;;;;5.93;2.10;;;24.60;70.80;;;;;;4990987;28;20521;-80
2021/05/25 07:19:41;;;;;;;5.65;2.05;;;24.60;71.10;;;;;;4990063;28;20772;-86
2021/05/25 07:22:07;;;;;;;8.07;1.70;;;24.70;71.10;;;;;;4991279;28;20034;-80
2021/05/25 07:24:33;;;;;;;6.97;1.85;;;24.70;70.80;;;;;;4991067;28;20269;-86
2021/05/25 07:26:59;;;;;;;8.30;2.33;;;24.70;71.10;;;;;;4989515;28;20057;-76
2021/05/25 07:29:25;;;;;;;5.32;2.25;;;24.60;71.60;;;;;;4990795;28;20083;-76
2021/05/25 07:31:51;;;;;;;6.07;1.98;;;24.70;71.80;;;;;;4991248;28;20034;-76
2021/05/25 07:34:18;;;;;;;5.78;1.85;;;24.70;71.80;;;;;;4990553;28;20035;-80
2021/05/25 07:36:46;;;;;;;2.75;1.58;;;24.70;72.20;;;;;;4990903;28;20022;-86
2021/05/25 07:39:12;;;;;;;4.65;1.48;;;24.80;71.60;;;;;;4990642;28;20160;-76
2021/05/25 07:41:39;;;;;;;8.00;2.40;;;24.80;71.80;;;;;;4990634;28;20360;-78
2021/05/25 07:44:05;;;;;;;5.53;1.50;;;24.80;72.70;;;;;;4990834;28;20023;-82
2021/05/25 07:46:32;;;;;;;3.40;1.70;;;24.70;73.00;;;;;;4990637;28;20109;-87
2021/05/25 07:48:58;;;;;;;6.95;1.73;;;24.70;73.50;;;;;;4990529;28;20033;-85
2021/05/25 07:51:24;;;;;;;3.60;2.05;;;24.80;74.40;;;;;;4990571;28;20018;-86
2021/05/25 07:53:50;;;;;;;4.80;1.65;;;24.80;72.40;;;;;;4990805;28;20113;-77
2021/05/25 07:56:16;;;;;;;10.07;2.20;;;24.90;71.80;;;;;;4990561;28;20041;-87
2021/05/25 07:58:42;;;;;;;8.48;2.10;;;24.90;72.80;;;;;;4991441;28;20030;-86
2021/05/25 08:01:08;;;;;;;5.53;2.47;;;25.00;72.40;;;;;;4999597;28;20038;-79
2021/05/25 08:03:35;;;;;;;6.28;2.17;;;25.10;72.40;;;;;;4992860;28;20848;-83
2021/05/25 08:06:01;;;;;;;5.18;2.22;;;25.10;72.90;;;;;;4990664;28;20071;-87
2021/05/25 08:08:29;;;;;;;7.60;2.40;;;25.20;72.90;;;;;;4990920;28;20046;-77
2021/05/25 08:10:56;;;;;;;8.77;2.10;;;25.20;72.80;;;;;;4990616;28;20665;-76
2021/05/25 08:13:22;;;;;;;8.57;1.67;;;25.40;71.80;;;;;;4990162;28;20079;-81
2021/05/25 08:15:49;;;;;;;4.63;2.27;;;25.40;70.30;;;;;;4990361;28;20054;-79
2021/05/25 08:20:44;;;;;;;5.25;1.88;;;25.70;70.50;;;;;;4990310;28;20498;-79
2021/05/25 08:23:12;;;;;;;6.68;2.28;;;25.80;70.70;;;;;;4993532;28;20027;-76
2021/05/25 08:25:41;;;;;;;9.48;3.10;;;25.80;69.70;;;;;;4993668;28;20030;-86
2021/05/25 08:28:08;;;;;;;7.53;2.70;;;25.90;70.60;;;;;;4993524;28;20087;-76
2021/05/25 08:30:38;;;;;;;7.32;2.30;;;25.90;70.50;;;;;;4993763;28;20022;-86
2021/05/25 08:33:04;;;;;;;12.15;2.85;;;25.90;71.10;;;;;;4993672;28;20030;-76
2021/05/25 08:35:35;;;;;;;8.80;2.67;;;26.00;73.70;;;;;;4992235;28;20076;-76
2021/05/25 08:38:03;;;;;;;11.25;2.92;;;26.10;73.20;;;;;;4993496;28;20030;-82
2021/05/25 08:40:30;;;;;;;9.02;3.05;;;26.10;73.30;;;;;;4993277;28;20513;-76
2021/05/25 08:42:57;;;;;;;9.15;2.67;;;26.30;74.00;;;;;;4993113;28;20026;-88
2021/05/25 08:45:23;;;;;;;9.18;2.78;;;26.30;73.80;;;;;;4993553;28;20103;-83
2021/05/25 08:47:52;;;;;;;12.55;3.15;;;26.40;73.50;;;;;;4975526;28;20490;-84
2021/05/25 08:50:21;;;;;;;8.00;2.90;;;26.30;73.60;;;;;;4992090;28;20058;-80
2021/05/25 08:52:47;;;;;;;8.07;2.63;;;26.40;73.80;;;;;;4991636;28;20125;-81
2021/05/25 08:55:15;;;;;;;7.43;2.53;;;26.50;74.50;;;;;;4990624;28;20027;-82
2021/05/25 08:57:41;;;;;;;11.02;2.85;;;26.40;74.00;;;;;;4992514;28;20030;-80
2021/05/25 09:00:09;;;;;;;10.75;2.92;;;26.40;73.60;;;;;;4992678;28;20487;-78
2021/05/25 09:02:36;;;;;;;9.93;2.65;;;26.30;73.70;;;;;;4992305;28;20031;-78
2021/05/25 09:05:32;;;;;;;7.55;2.95;;;26.40;74.10;;;;;;4992514;28;20474;-78
2021/05/25 09:08:00;;;;;;;7.95;2.40;;;26.60;73.60;;;;;;5000605;28;20058;-77
2021/05/25 09:10:41;;;;;;;8.77;2.45;;;26.60;73.10;;;;;;4994001;28;20033;-77
2021/05/25 09:13:21;;;;;;;8.80;2.72;;;26.50;73.70;;;;;;4997000;28;20211;-78
2021/05/25 09:15:49;;;;;;;11.43;2.63;;;26.80;73.90;;;;;;4992261;28;20061;-79
2021/05/25 09:18:23;;;;;;;13.52;3.40;;;26.80;72.10;;;;;;4992083;28;20521;-77
2021/05/25 09:20:55;;;;;;;7.18;3.15;;;26.80;72.50;;;;;;4999220;28;20036;-78
2021/05/25 09:23:38;;;;;;;8.38;2.47;;;27.00;72.00;;;;;;4998774;28;20030;-77
2021/05/25 09:26:07;;;;;;;;;;;27.00;72.20;;;;;;4992249;28;20030;-76
2021/05/25 09:28:34;;;;;;;10.43;2.10;;;27.20;72.20;;;;;;4990148;28;19913;-77
2021/05/25 09:31:03;;;;;;;10.48;2.45;;;27.40;72.00;;;;;;4990342;28;20492;-78
2021/05/25 09:33:29;;;;;;;7.53;3.00;;;27.40;71.70;;;;;;4991504;28;20125;-78
2021/05/25 09:35:55;;;;;;;9.70;2.50;;;27.20;71.70;;;;;;4991594;28;20501;-77
2021/05/25 09:38:26;;;;;;;7.40;3.05;;;27.20;71.90;;;;;;4990955;28;20041;-77
2021/05/25 09:40:52;;;;;;;14.45;3.03;;;27.40;72.00;;;;;;4989007;28;20479;-78
2021/05/25 09:43:24;;;;;;;8.70;2.45;;;27.60;71.80;;;;;;4990531;28;20030;-77
2021/05/25 09:45:58;;;;;;;5.93;1.98;;;27.90;71.90;;;;;;4991869;28;20148;-77
2021/05/25 09:48:26;;;;;;;8.63;2.05;;;27.50;71.60;;;;;;4990776;28;20491;-77
2021/05/25 09:50:55;;;;;;;7.80;2.10;;;27.40;72.00;;;;;;4992797;28;20034;-77
2021/05/25 09:53:23;;;;;;;7.72;2.53;;;27.60;72.20;;;;;;4991512;28;20034;-77
2021/05/25 09:55:58;;;;;;;11.20;3.15;;;27.80;72.60;;;;;;4992680;28;20424;-77
2021/05/25 09:58:39;;;;;;;10.27;2.72;;;28.00;72.30;;;;;;4991127;28;20026;-78
2021/05/25 10:01:09;;;;;;;5.05;2.30;;;28.20;71.30;;;;;;5003919;28;20045;-78
2021/05/25 10:03:54;;;;;;;3.70;2.13;;;28.10;71.30;;;;;;4990781;28;20129;-80
2021/05/25 10:06:20;;;;;;;9.25;2.22;;;28.10;71.60;;;;;;4990800;28;20034;-79
2021/05/25 10:08:49;;;;;;;7.82;2.55;;;28.40;71.30;;;;;;4990478;28;20038;-79
2021/05/25 10:11:16;;;;;;;6.05;2.05;;;28.40;70.30;;;;;;4989849;28;20026;-79
2021/05/25 10:13:42;;;;;;;5.47;2.40;;;28.50;69.40;;;;;;4990636;28;20031;-79
2021/05/25 10:16:11;;;;;;;11.18;2.70;;;28.10;69.60;;;;;;4990877;28;20037;-79
2021/05/25 10:21:10;;;;;;;9.18;2.78;;;28.60;68.60;;;;;;4995024;28;20033;-79
2021/05/25 10:23:36;;;;;;;10.30;3.28;;;28.80;68.60;;;;;;4992850;28;20041;-79
2021/05/25 10:26:24;;;;;;;7.90;1.90;;;28.50;69.80;;;;;;4991400;28;20022;-80
2021/05/25 10:28:52;;;;;;;10.35;2.47;;;28.10;70.30;;;;;;4989736;28;20074;-80
2021/05/25 10:31:48;;;;;;;6.03;2.50;;;28.20;70.20;;;;;;4991099;28;20101;-80
2021/05/25 10:34:21;;;;;;;5.60;1.80;;;28.00;70.90;;;;;;4989833;28;20049;-80
2021/05/25 10:36:55;;;;;;;7.45;1.85;;;27.70;71.20;;;;;;4991190;28;20026;-79
2021/05/25 10:39:43;;;;;;;6.80;1.83;;;27.90;70.80;;;;;;4989808;28;20127;-79
2021/05/25 10:42:18;;;;;;;15.68;2.88;;;28.10;69.70;;;;;;4991144;28;20030;-79
2021/05/25 10:45:07;;;;;;;9.93;2.75;;;28.30;70.40;;;;;;4990614;28;20555;-79
2021/05/25 10:47:38;;;;;;;5.60;1.80;;;28.20;70.20;;;;;;4989907;28;20395;-79
2021/05/25 10:52:54;;;;;;;7.60;2.40;;;29.10;69.20;;;;;;4971636;28;20035;-78
2021/05/25 10:55:33;;;;;;;7.50;2.13;;;29.10;68.90;;;;;;4988193;28;20478;-78
2021/05/25 10:58:00;;;;;;;7.40;2.10;;;29.20;68.10;;;;;;4990411;28;20087;-78
2021/05/25 11:00:41;;;;;;;10.13;2.38;;;28.80;69.20;;;;;;4990902;28;20026;-79
2021/05/25 11:03:10;;;;;;;7.32;1.90;;;28.60;67.90;;;;;;4991022;28;20038;-78
2021/05/25 11:05:37;;;;;;;7.72;2.92;;;28.70;68.50;;;;;;4990478;28;20503;-78
2021/05/25 11:08:11;;;;;;;5.88;1.75;;;28.80;68.50;;;;;;4990715;28;20043;-78
2021/05/25 11:10:43;;;;;;;6.82;1.63;;;29.00;68.30;;;;;;4989220;28;20042;-77
2021/05/25 11:13:15;;;;;;;19.23;4.78;;;29.30;67.40;;;;;;4989195;28;20394;-78
2021/05/25 11:16:07;;;;;;;7.25;2.38;;;29.30;67.10;;;;;;4989951;28;20038;-79
2021/05/25 11:18:57;;;;;;;9.95;2.35;;;29.40;66.50;;;;;;4973475;28;20372;-80
2021/05/25 11:24:37;;;;;;;6.03;1.60;;;30.20;66.00;;;;;;4971228;28;20092;-80
2021/05/25 11:27:14;;;;;;;6.53;1.73;;;29.90;65.30;;;;;;4971000;28;20391;-79
2021/05/25 11:29:59;;;;;;;8.25;2.45;;;30.30;66.50;;;;;;4975407;28;20552;-80
2021/05/25 11:32:30;;;;;;;7.05;2.78;;;30.00;65.00;;;;;;4993823;28;20062;-80
2021/05/25 11:34:59;;;;;;;9.65;2.03;;;29.80;65.00;;;;;;4990268;28;20109;-79
2021/05/25 11:37:27;;;;;;;3.75;1.80;;;29.70;65.70;;;;;;4990409;28;20501;-80
2021/05/25 11:39:54;;;;;;;7.43;2.03;;;29.60;65.90;;;;;;4990231;28;20022;-80
2021/05/25 11:42:28;;;;;;;6.85;2.00;;;29.50;66.20;;;;;;4989164;28;20041;-79
2021/05/25 11:44:55;;;;;;;6.78;2.38;;;29.50;67.20;;;;;;4990526;28;20127;-79
2021/05/25 11:47:22;;;;;;;8.77;1.95;;;29.70;66.90;;;;;;4990018;28;20042;-79
2021/05/25 11:49:49;;;;;;;7.65;2.22;;;29.70;66.90;;;;;;4989984;28;20094;-79
2021/05/25 11:52:22;;;;;;;4.93;1.92;;;30.00;66.10;;;;;;4990159;28;20099;-79
2021/05/25 11:54:51;;;;;;;6.57;2.17;;;30.40;66.60;;;;;;4990233;28;20045;-80
2021/05/25 11:57:34;;;;;;;5.43;2.42;;;30.10;66.30;;;;;;4991920;28;20038;-80
2021/05/25 12:00:12;;;;;;;4.15;2.25;;;29.80;67.40;;;;;;4992341;28;20073;-79
2021/05/25 12:02:40;;;;;;;7.00;2.65;;;29.80;68.30;;;;;;4992969;28;20395;-79
2021/05/25 12:05:25;;;;;;;12.18;2.22;;;30.30;69.20;;;;;;4993630;28;20027;-80
2021/05/25 12:08:11;;;;;;;7.15;2.20;;;30.10;66.80;;;;;;4993142;28;20046;-80
2021/05/25 12:10:39;;;;;;;8.18;2.90;;;29.70;68.00;;;;;;4993475;28;20695;-78
2021/05/25 12:13:07;;;;;;;8.40;2.53;;;29.20;69.20;;;;;;4993379;28;20031;-78
2021/05/25 12:15:48;;;;;;;6.28;2.10;;;29.10;69.10;;;;;;4991997;28;20135;-79
2021/05/25 12:18:20;;;;;;;6.35;2.42;;;29.60;69.10;;;;;;4993172;28;20491;-78
2021/05/25 12:20:51;;;;;;;10.48;2.20;;;30.10;68.20;;;;;;4993240;28;20139;-78
2021/05/25 12:23:22;;;;;;;11.27;2.85;;;30.60;67.30;;;;;;4973862;28;20034;-77
2021/05/25 12:25:53;;;;;;;7.80;2.40;;;30.80;66.80;;;;;;4972590;28;20029;-78
2021/05/25 12:28:23;;;;;;;5.43;2.42;;;30.80;65.90;;;;;;4985986;28;20038;-78
2021/05/25 12:30:59;;;;;;;7.50;2.67;;;31.20;66.40;;;;;;4993268;28;20035;-77
2021/05/25 12:33:29;;;;;;;9.00;2.38;;;31.00;64.80;;;;;;4993065;28;20069;-78
2021/05/25 12:36:20;;;;;;;4.72;2.35;;;30.50;65.90;;;;;;4976229;28;20056;-79
2021/05/25 12:39:13;;;;;;;7.00;2.78;;;30.20;66.50;;;;;;4992984;28;20158;-78
2021/05/25 12:41:51;;;;;;;8.43;2.28;;;30.30;67.20;;;;;;4996560;28;20490;-79
2021/05/25 12:44:30;;;;;;;4.95;1.98;;;30.20;67.90;;;;;;4993518;28;20034;-79
2021/05/25 12:47:04;;;;;;;7.90;2.00;;;30.60;67.00;;;;;;4993045;28;20049;-78
2021/05/25 12:49:41;;;;;;;8.00;2.30;;;31.00;66.90;;;;;;4992732;28;20068;-78
2021/05/25 12:52:33;;;;;;;7.63;2.05;;;31.20;66.20;;;;;;4992773;28;20033;-79
2021/05/25 12:55:13;;;;;;;5.97;2.38;;;31.50;66.40;;;;;;4992387;28;20034;-79
2021/05/25 12:57:54;;;;;;;8.45;2.33;;;31.80;66.40;;;;;;4992743;28;20066;-78
2021/05/25 13:00:31;;;;;;;5.07;1.95;;;31.70;66.10;;;;;;5003464;28;20034;-78
2021/05/25 13:02:59;;;;;;;6.22;2.25;;;32.10;65.90;;;;;;5007388;28;20053;-78
2021/05/25 13:05:27;;;;;;;7.60;2.00;;;32.20;65.40;;;;;;4991611;28;20029;-77
2021/05/25 13:10:47;;;;;;;6.05;2.38;;;32.20;64.70;;;;;;4991707;28;20101;-78